createdAt,value
2023-06-10T00:02:24.602Z,20.30
2023-06-10T00:04:51.542Z,20.20
2023-06-10T00:07:18.593Z,20.10
2023-06-10T00:09:45.259Z,20.00
2023-06-10T00:12:13.559Z,20.00
2023-06-10T00:14:44.043Z,19.90
2023-06-10T00:17:11.630Z,19.90
2023-06-10T00:19:42.629Z,19.80
2023-06-10T00:22:12.119Z,19.80
2023-06-10T00:24:39.053Z,19.70
2023-06-10T00:27:08.454Z,19.70
2023-06-10T00:29:35.507Z,19.60
2023-06-10T00:32:02.642Z,19.60
2023-06-10T00:34:29.486Z,19.50
2023-06-10T00:36:56.564Z,19.50
2023-06-10T00:39:23.347Z,19.50
2023-06-10T00:41:51.299Z,19.50
2023-06-10T00:44:18.020Z,19.40
2023-06-10T00:46:45.565Z,19.40
2023-06-10T00:49:12.368Z,19.40
2023-06-10T00:51:40.810Z,19.30
2023-06-10T00:54:08.334Z,19.30
2023-06-10T00:56:37.594Z,19.30
2023-06-10T00:59:04.240Z,19.30
2023-06-10T01:01:31.843Z,19.20
2023-06-10T01:03:59.804Z,19.20
2023-06-10T01:06:38.882Z,19.10
2023-06-10T01:09:38.479Z,19.10
2023-06-10T01:12:18.447Z,19.00
2023-06-10T01:14:46.136Z,18.90
2023-06-10T01:17:18.139Z,18.90
2023-06-10T01:19:45.679Z,18.80
2023-06-10T01:22:17.165Z,18.70
2023-06-10T01:24:44.853Z,18.70
2023-06-10T01:27:17.020Z,18.60
2023-06-10T01:29:53.904Z,18.60
2023-06-10T01:32:41.628Z,18.60
2023-06-10T01:35:10.318Z,18.60
2023-06-10T01:37:41.058Z,18.60
2023-06-10T01:40:09.058Z,18.60
2023-06-10T01:42:37.006Z,18.60
2023-06-10T01:45:04.189Z,18.60
2023-06-10T01:47:31.800Z,18.60
2023-06-10T01:50:00.631Z,18.60
2023-06-10T01:52:29.247Z,18.60
2023-06-10T01:54:56.019Z,18.60
2023-06-10T01:57:23.312Z,18.60
2023-06-10T01:59:50.035Z,18.50
2023-06-10T02:02:17.305Z,18.50
2023-06-10T02:04:44.186Z,18.50
2023-06-10T02:07:13.587Z,18.40
2023-06-10T02:09:40.252Z,18.40
2023-06-10T02:12:08.086Z,18.30
2023-06-10T02:14:35.140Z,18.40
2023-06-10T02:17:02.518Z,18.30
2023-06-10T02:19:29.387Z,18.20
2023-06-10T02:21:56.777Z,18.20
2023-06-10T02:24:23.631Z,18.20
2023-06-10T02:26:53.042Z,18.20
2023-06-10T02:29:19.687Z,18.20
2023-06-10T02:31:46.984Z,18.10
2023-06-10T02:34:14.633Z,18.10
2023-06-10T02:36:41.951Z,18.00
2023-06-10T02:39:08.958Z,17.90
2023-06-10T02:41:36.767Z,17.90
2023-06-10T02:44:03.945Z,17.90
2023-06-10T02:46:31.411Z,17.80
2023-06-10T02:48:58.147Z,17.80
2023-06-10T02:51:26.325Z,17.80
2023-06-10T02:53:58.854Z,17.80
2023-06-10T02:56:27.129Z,17.80
2023-06-10T02:58:55.463Z,17.70
2023-06-10T03:01:24.529Z,17.70
2023-06-10T03:03:59.713Z,17.70
2023-06-10T03:06:27.703Z,17.70
2023-06-10T03:09:05.575Z,17.70
2023-06-10T03:11:33.144Z,17.60
2023-06-10T03:13:59.925Z,17.60
2023-06-10T03:16:29.462Z,17.50
2023-06-10T03:18:56.229Z,17.50
2023-06-10T03:21:24.392Z,17.40
2023-06-10T03:23:51.735Z,17.40
2023-06-10T03:26:22.814Z,17.40
2023-06-10T03:28:50.930Z,17.30
2023-06-10T03:31:19.458Z,17.20
2023-06-10T03:33:46.330Z,17.20
2023-06-10T03:36:13.953Z,17.10
2023-06-10T03:38:40.990Z,17.10
2023-06-10T03:41:09.032Z,17.10
2023-06-10T03:43:36.824Z,17.10
2023-06-10T03:46:04.199Z,17.10
2023-06-10T03:48:32.354Z,17.10
2023-06-10T03:50:59.906Z,17.10
2023-06-10T03:53:26.640Z,17.10
2023-06-10T03:55:53.918Z,17.10
2023-06-10T03:58:23.808Z,17.20
2023-06-10T04:00:51.153Z,17.20
2023-06-10T04:03:18.101Z,17.30
2023-06-10T04:05:48.134Z,17.30
2023-06-10T04:08:14.898Z,17.40
2023-06-10T04:10:42.173Z,17.40
2023-06-10T04:13:09.881Z,17.50
2023-06-10T04:15:42.356Z,17.60
2023-06-10T04:18:12.914Z,17.60
2023-06-10T04:20:40.280Z,17.70
2023-06-10T04:23:07.516Z,17.80
2023-06-10T04:25:35.294Z,17.90
2023-06-10T04:28:02.196Z,17.90
2023-06-10T04:30:29.862Z,18.00
2023-06-10T04:32:57.600Z,18.10
2023-06-10T04:35:25.918Z,18.20
2023-06-10T04:37:52.667Z,18.30
2023-06-10T04:40:20.897Z,18.40
2023-06-10T04:42:48.392Z,18.50
2023-06-10T04:45:15.886Z,18.60
2023-06-10T04:47:43.082Z,18.60
2023-06-10T04:50:11.949Z,18.70
2023-06-10T04:52:38.643Z,18.80
2023-06-10T04:55:07.287Z,19.10
2023-06-10T04:57:34.252Z,20.40
2023-06-10T05:00:01.600Z,22.00
2023-06-10T05:02:28.431Z,23.10
2023-06-10T05:04:56.347Z,23.90
2023-06-10T05:07:22.994Z,24.70
2023-06-10T05:09:50.391Z,25.50
2023-06-10T05:12:17.178Z,26.20
2023-06-10T05:14:46.072Z,26.70
2023-06-10T05:17:13.845Z,27.20
2023-06-10T05:19:42.799Z,27.70
2023-06-10T05:22:09.492Z,27.80
2023-06-10T05:24:36.859Z,28.30
2023-06-10T05:27:03.832Z,28.40
2023-06-10T05:29:31.154Z,28.60
2023-06-10T05:31:58.647Z,28.90
2023-06-10T05:34:26.157Z,29.10
2023-06-10T05:36:52.839Z,29.40
2023-06-10T05:39:20.187Z,29.60
2023-06-10T05:41:47.239Z,29.80
2023-06-10T05:44:14.597Z,30.20
2023-06-10T05:46:41.469Z,30.40
2023-06-10T05:49:08.740Z,30.70
2023-06-10T05:51:35.675Z,30.80
2023-06-10T05:54:02.948Z,31.10
2023-06-10T05:56:30.199Z,31.10
2023-06-10T05:58:57.741Z,31.20
2023-06-10T06:01:24.492Z,31.40
2023-06-10T06:03:51.596Z,32.10
2023-06-10T06:06:21.329Z,32.10
2023-06-10T06:08:48.614Z,32.30
2023-06-10T06:11:15.517Z,32.80
2023-06-10T06:13:43.397Z,33.30
2023-06-10T06:16:10.128Z,33.50
2023-06-10T06:18:37.486Z,33.50
2023-06-10T06:21:04.207Z,33.70
2023-06-10T06:23:31.844Z,33.50
2023-06-10T06:25:58.553Z,34.00
2023-06-10T06:28:30.565Z,34.00
2023-06-10T06:30:58.022Z,34.80
2023-06-10T06:33:27.640Z,34.90
2023-06-10T06:35:54.358Z,35.20
2023-06-10T06:38:21.338Z,35.30
2023-06-10T06:40:48.066Z,35.30
2023-06-10T06:43:15.586Z,35.40
2023-06-10T06:45:50.094Z,35.00
2023-06-10T06:48:17.464Z,35.40
2023-06-10T06:50:44.140Z,35.60
2023-06-10T06:53:11.136Z,36.20
2023-06-10T06:55:38.417Z,36.10
2023-06-10T06:58:05.514Z,36.30
2023-06-10T07:00:33.596Z,36.40
2023-06-10T07:03:00.380Z,36.60
2023-06-10T07:05:28.680Z,36.40
2023-06-10T07:07:56.953Z,36.50
2023-06-10T07:10:27.901Z,36.50
2023-06-10T07:12:54.908Z,36.40
2023-06-10T07:15:22.477Z,36.50
2023-06-10T07:17:49.515Z,36.70
2023-06-10T07:20:16.683Z,36.60
2023-06-10T07:22:43.686Z,36.80
2023-06-10T07:25:11.442Z,37.10
2023-06-10T07:27:38.423Z,36.90
2023-06-10T07:30:09.298Z,36.90
2023-06-10T07:32:36.043Z,36.70
2023-06-10T07:35:03.524Z,36.60
2023-06-10T07:37:30.264Z,36.80
2023-06-10T07:39:58.243Z,36.70
2023-06-10T07:42:24.953Z,36.30
2023-06-10T07:44:52.270Z,36.20
2023-06-10T07:47:19.199Z,35.80
2023-06-10T07:49:46.511Z,35.30
2023-06-10T07:52:13.538Z,34.90
2023-06-10T07:54:40.695Z,34.60
2023-06-10T07:57:10.880Z,34.50
2023-06-10T07:59:38.319Z,34.30
2023-06-10T08:02:05.777Z,33.90
2023-06-10T08:04:33.821Z,34.00
2023-06-10T08:07:00.868Z,34.10
2023-06-10T08:09:27.558Z,34.00
2023-06-10T08:11:54.980Z,33.40
2023-06-10T08:14:21.659Z,33.10
2023-06-10T08:16:48.658Z,32.80
2023-06-10T08:19:16.003Z,32.60
2023-06-10T08:21:43.392Z,32.40
2023-06-10T08:24:11.179Z,32.30
2023-06-10T08:26:40.297Z,31.80
2023-06-10T08:29:06.956Z,31.90
2023-06-10T08:31:34.328Z,31.60
2023-06-10T08:34:01.032Z,31.70
2023-06-10T08:36:28.419Z,31.40
2023-06-10T08:38:55.024Z,31.30
2023-06-10T08:41:25.449Z,31.20
2023-06-10T08:44:05.079Z,30.60
2023-06-10T08:46:34.571Z,30.50
2023-06-10T08:49:06.502Z,30.50
2023-06-10T08:51:35.876Z,30.20
2023-06-10T08:54:12.490Z,29.90
2023-06-10T08:56:41.592Z,29.70
2023-06-10T08:59:09.895Z,29.40
2023-06-10T09:01:38.094Z,29.20
2023-06-10T09:04:05.133Z,29.30
2023-06-10T09:06:35.080Z,29.30
2023-06-10T09:09:03.771Z,29.40
2023-06-10T09:11:32.820Z,29.20
2023-06-10T09:13:59.552Z,29.20
2023-06-10T09:16:27.011Z,29.40
2023-06-10T09:18:56.174Z,29.60
2023-06-10T09:21:24.642Z,29.80
2023-06-10T09:23:52.608Z,29.80
2023-06-10T09:26:19.869Z,29.90
2023-06-10T09:28:50.951Z,29.80
2023-06-10T09:31:23.146Z,30.00
2023-06-10T09:33:50.165Z,30.00
2023-06-10T09:36:24.599Z,30.00
2023-06-10T09:38:54.606Z,30.20
2023-06-10T09:41:22.554Z,30.10
2023-06-10T09:43:50.445Z,30.10
2023-06-10T09:46:19.478Z,30.30
2023-06-10T09:48:48.389Z,30.20
2023-06-10T09:51:18.344Z,30.10
2023-06-10T09:53:51.063Z,30.30
2023-06-10T09:56:18.733Z,30.50
2023-06-10T09:58:47.444Z,30.30
2023-06-10T10:01:15.737Z,30.40
2023-06-10T10:03:51.722Z,30.30
2023-06-10T10:06:20.264Z,30.50
2023-06-10T10:08:51.380Z,30.50
2023-06-10T10:11:21.000Z,30.50
2023-06-10T10:13:49.959Z,30.50
2023-06-10T10:16:42.138Z,30.30
2023-06-10T10:19:16.984Z,30.50
2023-06-10T10:22:12.122Z,30.30
2023-06-10T10:24:50.060Z,30.50
2023-06-10T10:27:27.955Z,30.70
2023-06-10T10:29:56.294Z,31.00
2023-06-10T10:32:39.444Z,31.20
2023-06-10T10:35:10.151Z,31.30
2023-06-10T10:37:37.913Z,31.40
2023-06-10T10:40:06.627Z,31.30
2023-06-10T10:42:34.986Z,31.30
2023-06-10T10:45:03.058Z,31.30
2023-06-10T10:47:34.322Z,31.40
2023-06-10T10:50:01.314Z,31.30
2023-06-10T10:52:59.912Z,31.10
2023-06-10T10:55:27.970Z,31.10
2023-06-10T10:57:57.511Z,31.30
2023-06-10T11:00:32.343Z,31.20
2023-06-10T11:03:11.882Z,31.30
2023-06-10T11:05:45.262Z,31.40
2023-06-10T11:08:13.023Z,31.50
2023-06-10T11:10:53.786Z,31.60
2023-06-10T11:13:23.437Z,31.50
2023-06-10T11:15:51.807Z,31.60
2023-06-10T11:18:28.412Z,31.60
2023-06-10T11:21:08.092Z,31.70
2023-06-10T11:23:40.018Z,31.80
2023-06-10T11:26:22.115Z,31.80
2023-06-10T11:28:49.478Z,31.80
2023-06-10T11:31:38.804Z,32.00
2023-06-10T11:34:07.753Z,32.00
2023-06-10T11:36:37.849Z,32.10
2023-06-10T11:39:07.046Z,32.30
2023-06-10T11:41:34.953Z,32.20
2023-06-10T11:44:09.105Z,32.10
2023-06-10T11:46:36.611Z,31.70
2023-06-10T11:49:06.550Z,31.80
2023-06-10T11:51:38.513Z,31.80
2023-06-10T11:54:06.377Z,31.90
2023-06-10T11:56:33.469Z,31.90
2023-06-10T11:59:05.983Z,31.90
2023-06-10T12:01:44.789Z,32.00
2023-06-10T12:04:14.168Z,31.70
2023-06-10T12:06:44.346Z,31.30
2023-06-10T12:09:31.390Z,31.00
2023-06-10T12:12:04.348Z,31.00
2023-06-10T12:15:07.288Z,31.00
2023-06-10T12:17:35.042Z,30.70
2023-06-10T12:20:04.903Z,30.50
2023-06-10T12:22:45.106Z,30.20
2023-06-10T12:25:13.631Z,30.50
2023-06-10T12:27:51.546Z,30.90
2023-06-10T12:30:22.837Z,31.40
2023-06-10T12:32:49.688Z,31.70
2023-06-10T12:35:22.387Z,31.60
2023-06-10T12:37:57.068Z,31.30
2023-06-10T12:40:29.987Z,30.90
2023-06-10T12:42:57.316Z,30.60
2023-06-10T12:45:32.299Z,30.50
2023-06-10T12:48:13.570Z,30.70
2023-06-10T12:50:42.709Z,31.00
2023-06-10T12:53:12.115Z,31.50
2023-06-10T12:55:39.928Z,31.90
2023-06-10T12:58:06.711Z,32.00
2023-06-10T13:00:36.389Z,32.00
2023-06-10T13:03:04.053Z,32.30
2023-06-10T13:05:31.500Z,31.90
2023-06-10T13:07:58.825Z,31.80
2023-06-10T13:10:26.873Z,31.80
2023-06-10T13:12:55.642Z,31.90
2023-06-10T13:15:23.335Z,31.80
2023-06-10T13:17:51.559Z,31.50
2023-06-10T13:20:19.802Z,31.10
2023-06-10T13:22:46.745Z,31.00
2023-06-10T13:25:14.761Z,30.90
2023-06-10T13:27:42.929Z,30.70
2023-06-10T13:30:12.398Z,30.50
2023-06-10T13:32:39.601Z,30.40
2023-06-10T13:35:08.867Z,30.40
2023-06-10T13:37:36.202Z,30.40
2023-06-10T13:40:04.229Z,30.40
2023-06-10T13:42:31.371Z,30.40
2023-06-10T13:44:58.680Z,30.10
2023-06-10T13:47:25.642Z,30.20
2023-06-10T13:49:52.992Z,30.50
2023-06-10T13:52:19.708Z,30.50
2023-06-10T13:54:46.683Z,30.60
2023-06-10T13:57:13.420Z,30.60
2023-06-10T13:59:40.089Z,30.60
2023-06-10T14:02:07.729Z,30.60
2023-06-10T14:04:34.474Z,30.60
2023-06-10T14:07:02.113Z,30.70
2023-06-10T14:09:28.956Z,31.00
2023-06-10T14:11:56.391Z,31.20
2023-06-10T14:14:23.827Z,31.30
2023-06-10T14:16:51.267Z,31.30
2023-06-10T14:19:18.065Z,31.20
2023-06-10T14:21:45.404Z,30.90
2023-06-10T14:24:12.112Z,30.70
2023-06-10T14:26:39.485Z,30.90
2023-06-10T14:29:06.155Z,31.00
2023-06-10T14:31:33.747Z,31.00
2023-06-10T14:34:00.611Z,30.80
2023-06-10T14:36:28.088Z,30.60
2023-06-10T14:38:54.821Z,30.50
2023-06-10T14:41:23.596Z,30.40
2023-06-10T14:43:50.433Z,30.30
2023-06-10T14:46:17.956Z,30.30
2023-06-10T14:48:44.756Z,30.40
2023-06-10T14:51:12.057Z,30.50
2023-06-10T14:53:38.825Z,30.50
2023-06-10T14:56:06.554Z,30.90
2023-06-10T14:58:33.260Z,30.90
2023-06-10T15:01:00.720Z,30.70
2023-06-10T15:03:27.382Z,30.70
2023-06-10T15:05:54.641Z,30.80
2023-06-10T15:08:21.435Z,30.90
2023-06-10T15:10:49.665Z,30.90
2023-06-10T15:13:16.516Z,31.00
2023-06-10T15:18:31.635Z,30.30
2023-06-10T15:20:58.951Z,29.80
2023-06-10T15:23:25.697Z,29.40
2023-06-10T15:25:53.168Z,29.20
2023-06-10T15:28:19.856Z,28.90
2023-06-10T15:30:47.149Z,28.80
2023-06-10T15:33:13.836Z,28.70
2023-06-10T15:35:41.329Z,28.60
2023-06-10T15:38:07.979Z,28.50
2023-06-10T15:40:36.332Z,28.50
2023-06-10T15:43:02.978Z,28.60
2023-06-10T15:45:32.478Z,28.60
2023-06-10T15:48:00.679Z,28.70
2023-06-10T15:50:28.099Z,28.80
2023-06-10T15:52:54.879Z,28.80
2023-06-10T15:55:22.274Z,28.90
2023-06-10T15:57:48.999Z,29.00
2023-06-10T16:00:17.214Z,29.10
2023-06-10T16:02:43.920Z,29.10
2023-06-10T16:05:11.589Z,29.30
2023-06-10T16:07:38.648Z,29.30
2023-06-10T16:10:06.294Z,29.40
2023-06-10T16:12:32.977Z,29.50
2023-06-10T16:15:00.307Z,29.60
2023-06-10T16:17:27.096Z,29.70
2023-06-10T16:19:54.511Z,29.80
2023-06-10T16:22:21.277Z,29.90
2023-06-10T16:24:48.545Z,30.00
2023-06-10T16:27:15.197Z,30.10
2023-06-10T16:29:42.498Z,30.00
2023-06-10T16:32:09.317Z,30.00
2023-06-10T16:34:36.612Z,30.00
2023-06-10T16:37:03.788Z,30.00
2023-06-10T16:39:31.271Z,30.00
2023-06-10T16:41:57.950Z,30.00
2023-06-10T16:44:25.466Z,29.90
2023-06-10T16:46:52.241Z,29.90
2023-06-10T16:49:19.863Z,29.80
2023-06-10T16:51:46.507Z,29.70
2023-06-10T16:54:13.971Z,29.50
2023-06-10T16:56:41.155Z,29.40
2023-06-10T16:59:08.822Z,29.30
2023-06-10T17:01:35.494Z,29.20
2023-06-10T17:04:02.791Z,29.10
2023-06-10T17:06:29.436Z,29.10
2023-06-10T17:08:56.809Z,29.10
2023-06-10T17:11:23.759Z,29.00
2023-06-10T17:13:51.643Z,29.00
2023-06-10T17:16:18.358Z,28.90
2023-06-10T17:18:45.766Z,28.90
2023-06-10T17:21:12.471Z,28.80
2023-06-10T17:23:39.812Z,28.80
2023-06-10T17:26:06.592Z,28.80
2023-06-10T17:28:33.587Z,28.80
2023-06-10T17:31:00.241Z,28.70
2023-06-10T17:33:27.634Z,28.60
2023-06-10T17:35:54.368Z,28.60
2023-06-10T17:38:23.231Z,28.50
2023-06-10T17:40:49.898Z,28.50
2023-06-10T17:43:17.329Z,28.40
2023-06-10T17:45:44.143Z,28.40
2023-06-10T17:48:11.696Z,28.30
2023-06-10T17:50:38.440Z,28.30
2023-06-10T17:53:05.854Z,28.10
2023-06-10T17:55:33.291Z,28.00
2023-06-10T17:58:00.716Z,28.00
2023-06-10T18:00:27.542Z,28.00
2023-06-10T18:02:55.096Z,27.90
2023-06-10T18:05:22.106Z,27.90
2023-06-10T18:07:49.548Z,27.90
2023-06-10T18:10:16.283Z,27.80
2023-06-10T18:12:43.613Z,27.80
2023-06-10T18:15:10.807Z,27.60
2023-06-10T18:17:38.517Z,27.60
2023-06-10T18:20:06.017Z,27.50
2023-06-10T18:22:33.504Z,27.40
2023-06-10T18:25:05.600Z,27.40
2023-06-10T18:27:34.079Z,27.40
2023-06-10T18:30:01.106Z,27.30
2023-06-10T18:32:28.581Z,27.30
2023-06-10T18:34:55.412Z,27.20
2023-06-10T18:37:22.753Z,27.10
2023-06-10T18:39:50.504Z,27.00
2023-06-10T18:42:17.804Z,26.90
2023-06-10T18:44:44.581Z,26.90
2023-06-10T18:47:11.901Z,26.80
2023-06-10T18:49:39.175Z,26.70
2023-06-10T18:52:09.517Z,26.70
2023-06-10T18:54:36.345Z,26.60
2023-06-10T18:57:04.034Z,26.50
2023-06-10T18:59:30.734Z,26.50
2023-06-10T19:01:58.119Z,26.40
2023-06-10T19:04:24.973Z,26.40
2023-06-10T19:06:52.729Z,26.30
2023-06-10T19:09:19.686Z,26.30
2023-06-10T19:11:46.970Z,26.20
2023-06-10T19:14:13.726Z,26.10
2023-06-10T19:16:41.253Z,26.10
2023-06-10T19:19:07.966Z,26.00
2023-06-10T19:21:35.339Z,25.90
2023-06-10T19:24:02.125Z,25.80
2023-06-10T19:26:29.540Z,25.70
2023-06-10T19:28:56.287Z,25.60
2023-06-10T19:31:23.755Z,25.50
2023-06-10T19:33:50.495Z,25.40
2023-06-10T19:36:17.849Z,25.30
2023-06-10T19:38:44.480Z,25.20
2023-06-10T19:41:11.796Z,25.10
2023-06-10T19:43:38.509Z,25.00
2023-06-10T19:46:05.932Z,25.00
2023-06-10T19:48:32.948Z,25.00
2023-06-10T19:51:00.307Z,24.90
2023-06-10T19:53:27.001Z,24.90
2023-06-10T19:55:54.001Z,24.90
2023-06-10T19:58:21.300Z,24.90
2023-06-10T20:00:48.055Z,24.90
2023-06-10T20:03:15.378Z,24.80
2023-06-10T20:05:42.139Z,24.80
2023-06-10T20:08:09.699Z,24.70
2023-06-10T20:10:36.515Z,24.70
2023-06-10T20:13:03.857Z,24.70
2023-06-10T20:15:30.685Z,24.70
2023-06-10T20:17:58.004Z,24.60
2023-06-10T20:20:25.126Z,24.60
2023-06-10T20:22:52.403Z,24.60
2023-06-10T20:25:19.146Z,24.50
2023-06-10T20:27:46.508Z,24.40
2023-06-10T20:30:14.645Z,24.30
2023-06-10T20:32:41.961Z,24.20
2023-06-10T20:35:10.266Z,24.10
2023-06-10T20:37:37.897Z,24.10
2023-06-10T20:40:06.358Z,24.10
2023-06-10T20:42:33.750Z,24.10
2023-06-10T20:45:00.562Z,24.10
2023-06-10T20:47:27.917Z,24.10
2023-06-10T20:49:54.684Z,24.10
2023-06-10T20:52:21.996Z,24.00
2023-06-10T20:54:48.698Z,24.00
2023-06-10T20:57:16.020Z,23.80
2023-06-10T20:59:42.670Z,23.90
2023-06-10T21:02:10.057Z,23.90
2023-06-10T21:04:36.768Z,23.80
2023-06-10T21:07:03.974Z,23.80
2023-06-10T21:09:30.739Z,23.80
2023-06-10T21:11:58.013Z,23.70
2023-06-10T21:14:24.632Z,23.70
2023-06-10T21:16:51.714Z,23.70
2023-06-10T21:19:18.999Z,23.60
2023-06-10T21:21:45.750Z,23.60
2023-06-10T21:24:13.107Z,23.60
2023-06-10T21:26:40.333Z,23.50
2023-06-10T21:29:08.134Z,23.60
2023-06-10T21:31:34.842Z,23.60
2023-06-10T21:34:01.936Z,23.50
2023-06-10T21:36:28.600Z,23.40
2023-06-10T21:38:55.613Z,23.40
2023-06-10T21:41:23.221Z,23.30
2023-06-10T21:43:50.570Z,23.20
2023-06-10T21:46:17.241Z,23.20
2023-06-10T21:48:44.494Z,23.20
2023-06-10T21:51:11.214Z,23.10
2023-06-10T21:53:38.507Z,22.90
2023-06-10T21:56:05.544Z,22.90
2023-06-10T21:58:32.854Z,22.90
2023-06-10T22:00:59.998Z,22.90
2023-06-10T22:03:27.772Z,22.90
2023-06-10T22:05:54.580Z,22.80
2023-06-10T22:08:21.901Z,22.80
2023-06-10T22:10:48.554Z,22.80
2023-06-10T22:13:19.323Z,22.70
2023-06-10T22:15:46.092Z,22.70
2023-06-10T22:18:13.247Z,22.60
2023-06-10T22:20:41.292Z,22.50
2023-06-10T22:23:08.576Z,22.50
2023-06-10T22:25:35.380Z,22.40
2023-06-10T22:28:02.782Z,22.30
2023-06-10T22:30:29.460Z,22.30
2023-06-10T22:32:56.831Z,22.20
2023-06-10T22:35:23.566Z,22.20
2023-06-10T22:37:50.913Z,22.10
2023-06-10T22:40:17.709Z,22.10
2023-06-10T22:42:44.753Z,22.00
2023-06-10T22:45:11.693Z,21.90
2023-06-10T22:47:39.627Z,21.90
2023-06-10T22:50:07.049Z,21.80
2023-06-10T22:52:34.358Z,21.80
2023-06-10T22:55:01.108Z,21.80
2023-06-10T22:57:28.473Z,21.70
2023-06-10T22:59:55.180Z,21.70
2023-06-10T23:02:22.571Z,21.70
2023-06-10T23:04:49.343Z,21.70
2023-06-10T23:07:18.479Z,21.70
2023-06-10T23:09:45.286Z,21.60
2023-06-10T23:12:12.622Z,21.60
2023-06-10T23:14:39.333Z,21.50
2023-06-10T23:17:07.145Z,21.50
2023-06-10T23:19:34.186Z,21.40
2023-06-10T23:22:01.145Z,21.50
2023-06-10T23:24:30.619Z,21.30
2023-06-10T23:27:00.022Z,21.30
2023-06-10T23:29:27.147Z,21.20
2023-06-10T23:31:55.582Z,21.10
2023-06-10T23:34:22.678Z,21.10
2023-06-10T23:36:50.085Z,21.10
2023-06-10T23:39:17.060Z,21.10
2023-06-10T23:41:45.420Z,21.00
2023-06-10T23:44:13.259Z,21.00
2023-06-10T23:46:41.109Z,20.90
2023-06-10T23:49:09.674Z,20.90
2023-06-10T23:51:38.712Z,20.90
2023-06-10T23:54:06.350Z,20.80
2023-06-10T23:56:33.923Z,20.80
2023-06-10T23:59:01.010Z,20.70
